Time;durP1;ratioP1;P1;durP2;ratioP2;P2;SDS_P1;SDS_P2;PMS_P1;PMS_P2;Temp;Humidity;BMP_temperature;BMP_pressure;BME280_temperature;BME280_humidity;BME280_pressure;Samples;Min_cycle;Max_cycle;Signal;HPM_P1;HPM_P2
2023/06/09 00:00:17;;;;;;;11.48;4.57;;;12.60;99.90;;;;;;5052527;28;20139;-63
2023/06/09 00:02:50;;;;;;;9.95;4.30;;;12.70;99.90;;;;;;5068236;28;20403;-63
2023/06/09 00:05:21;;;;;;;13.43;4.88;;;12.70;99.90;;;;;;5067786;28;20044;-64
2023/06/09 00:07:52;;;;;;;10.23;4.13;;;12.60;99.90;;;;;;5064397;28;20079;-64
2023/06/09 00:10:18;;;;;;;11.75;4.53;;;12.60;99.90;;;;;;5068558;28;20036;-64
2023/06/09 00:12:47;;;;;;;13.48;5.18;;;12.60;99.90;;;;;;5068259;28;20080;-65
2023/06/09 00:15:15;;;;;;;11.23;5.00;;;12.60;99.90;;;;;;5068642;28;20087;-64
2023/06/09 00:17:41;;;;;;;9.88;4.43;;;12.60;99.90;;;;;;5068779;28;20069;-65
2023/06/09 00:20:08;;;;;;;11.30;4.97;;;12.60;99.90;;;;;;5068283;28;20138;-65
2023/06/09 00:22:35;;;;;;;11.48;4.38;;;12.60;99.90;;;;;;5067373;28;20039;-65
2023/06/09 00:25:01;;;;;;;13.27;4.85;;;12.60;99.90;;;;;;5067731;28;20128;-65
2023/06/09 00:27:29;;;;;;;8.60;4.30;;;12.60;99.90;;;;;;5069131;28;20538;-64
2023/06/09 00:29:54;;;;;;;12.35;4.30;;;12.70;99.90;;;;;;5069064;28;20090;-63
2023/06/09 00:32:20;;;;;;;15.55;4.75;;;12.70;99.90;;;;;;5071949;28;20467;-66
2023/06/09 00:34:46;;;;;;;12.48;4.68;;;12.70;99.90;;;;;;5071723;28;20063;-63
2023/06/09 00:37:11;;;;;;;12.00;4.70;;;12.70;99.90;;;;;;5072457;28;20044;-65
2023/06/09 00:39:37;;;;;;;14.25;5.20;;;12.70;99.90;;;;;;5072407;28;20041;-65
2023/06/09 00:42:03;;;;;;;13.00;4.60;;;12.60;99.90;;;;;;5055899;28;20558;-65
2023/06/09 00:44:28;;;;;;;12.98;4.45;;;12.60;99.90;;;;;;5072910;28;20072;-63
2023/06/09 00:46:54;;;;;;;15.02;5.03;;;12.60;99.90;;;;;;5072396;28;20087;-63
2023/06/09 00:49:19;;;;;;;12.68;4.85;;;12.70;99.90;;;;;;5072848;28;20064;-65
2023/06/09 00:51:45;;;;;;;13.35;5.15;;;12.60;99.90;;;;;;5072299;28;20048;-64
2023/06/09 00:54:12;;;;;;;16.17;5.00;;;12.70;99.90;;;;;;5055736;28;20459;-65
2023/06/09 00:56:39;;;;;;;14.50;5.40;;;12.70;99.90;;;;;;5072113;28;20105;-64
2023/06/09 00:59:07;;;;;;;12.55;4.90;;;12.70;99.90;;;;;;5072419;28;20043;-65
2023/06/09 01:01:33;;;;;;;10.95;4.45;;;12.70;99.90;;;;;;5072599;28;20044;-64
2023/06/09 01:04:00;;;;;;;15.77;4.97;;;12.70;99.90;;;;;;5071781;28;20067;-63
2023/06/09 01:07:01;;;;;;;14.05;4.72;;;12.60;99.90;;;;;;5072321;28;20166;-64
2023/06/09 01:09:40;;;;;;;11.15;4.53;;;12.60;99.90;;;;;;5071928;28;20380;-63
2023/06/09 01:12:42;;;;;;;15.23;4.80;;;12.60;99.90;;;;;;5055330;28;20131;-66
2023/06/09 01:15:25;;;;;;;11.98;4.97;;;12.60;99.90;;;;;;5054754;28;20032;-63
2023/06/09 01:17:54;;;;;;;13.93;5.07;;;12.60;99.90;;;;;;5071585;28;20098;-65
2023/06/09 01:20:47;;;;;;;11.45;4.45;;;12.60;99.90;;;;;;5071818;28;20063;-65
2023/06/09 01:23:21;;;;;;;12.10;4.50;;;12.60;99.90;;;;;;5072154;28;20059;-65
2023/06/09 01:25:50;;;;;;;13.90;4.97;;;12.60;99.90;;;;;;5071493;28;20036;-63
2023/06/09 01:28:20;;;;;;;12.52;4.50;;;12.60;99.90;;;;;;5071603;28;20276;-65
2023/06/09 01:30:48;;;;;;;15.38;4.75;;;12.60;99.90;;;;;;5072078;28;20380;-65
2023/06/09 01:33:25;;;;;;;11.85;4.85;;;12.60;99.90;;;;;;5072217;28;20032;-64
2023/06/09 01:35:53;;;;;;;13.07;5.20;;;12.60;99.90;;;;;;5072137;28;20047;-63
2023/06/09 01:38:20;;;;;;;15.13;5.38;;;12.60;99.90;;;;;;5071575;28;20039;-63
2023/06/09 01:40:46;;;;;;;13.48;5.43;;;12.60;99.90;;;;;;5070746;28;20054;-65
2023/06/09 01:43:12;;;;;;;19.75;5.45;;;12.60;99.90;;;;;;5071572;28;20070;-64
2023/06/09 01:45:38;;;;;;;14.10;5.47;;;12.60;99.90;;;;;;5071240;28;20032;-66
2023/06/09 01:48:21;;;;;;;11.32;5.40;;;12.60;99.90;;;;;;5071038;28;20043;-65
2023/06/09 01:50:55;;;;;;;11.40;5.20;;;12.60;99.90;;;;;;5072754;28;20047;-64
2023/06/09 01:53:28;;;;;;;13.77;5.50;;;12.60;99.90;;;;;;5071181;28;20132;-64
2023/06/09 01:56:01;;;;;;;15.32;5.47;;;12.60;99.90;;;;;;5056828;28;20059;-63
2023/06/09 01:58:36;;;;;;;16.75;6.53;;;12.60;99.90;;;;;;5067508;28;20064;-64
2023/06/09 02:01:04;;;;;;;18.65;6.32;;;12.60;99.90;;;;;;5069263;28;20088;-66
2023/06/09 02:03:31;;;;;;;12.65;5.95;;;12.50;99.90;;;;;;5071068;28;20727;-65
2023/06/09 02:05:58;;;;;;;18.23;6.45;;;12.50;99.90;;;;;;5069115;28;20088;-63
2023/06/09 02:08:23;;;;;;;15.75;6.72;;;12.50;99.90;;;;;;5067851;28;20080;-65
2023/06/09 02:10:49;;;;;;;15.77;6.45;;;12.50;99.90;;;;;;5069757;28;20071;-64
2023/06/09 02:13:16;;;;;;;15.45;6.35;;;12.50;99.90;;;;;;5073234;28;20040;-65
2023/06/09 02:15:46;;;;;;;16.88;6.80;;;12.40;99.90;;;;;;5069433;28;20040;-63
2023/06/09 02:18:13;;;;;;;15.50;6.55;;;12.40;99.90;;;;;;5069963;28;20098;-64
2023/06/09 02:20:40;;;;;;;13.02;6.68;;;12.40;99.90;;;;;;5069520;28;20115;-64
2023/06/09 02:23:06;;;;;;;15.20;6.47;;;12.40;99.90;;;;;;5069720;28;20036;-63
2023/06/09 02:25:32;;;;;;;18.25;7.10;;;12.40;99.90;;;;;;5104180;28;20095;-65
2023/06/09 02:28:02;;;;;;;15.48;6.70;;;12.30;99.90;;;;;;5069218;28;20135;-64
2023/06/09 02:30:28;;;;;;;15.18;6.40;;;12.30;99.90;;;;;;5070479;28;20059;-64
2023/06/09 02:32:55;;;;;;;18.83;7.03;;;12.20;99.90;;;;;;5069723;28;20040;-64
2023/06/09 02:35:21;;;;;;;14.13;7.00;;;12.20;99.90;;;;;;5069239;28;20037;-66
2023/06/09 02:37:47;;;;;;;15.30;6.70;;;12.10;99.90;;;;;;5070324;28;20036;-66
2023/06/09 02:40:13;;;;;;;13.32;6.95;;;12.10;99.90;;;;;;5053506;28;20071;-66
2023/06/09 02:42:39;;;;;;;16.02;7.25;;;12.10;99.90;;;;;;5068895;28;20536;-63
2023/06/09 02:45:07;;;;;;;16.40;6.90;;;12.10;99.90;;;;;;5102268;28;20123;-64
2023/06/09 02:47:32;;;;;;;18.73;7.30;;;12.00;99.90;;;;;;5069616;28;20086;-66
2023/06/09 02:49:58;;;;;;;19.75;7.15;;;12.00;99.90;;;;;;5071080;28;20036;-64
2023/06/09 02:52:28;;;;;;;20.73;7.43;;;12.00;99.90;;;;;;5070722;28;20052;-64
2023/06/09 02:54:54;;;;;;;19.90;6.85;;;12.00;99.90;;;;;;5069658;28;20044;-63
2023/06/09 02:57:20;;;;;;;17.33;7.07;;;11.90;99.90;;;;;;5068469;28;20043;-64
2023/06/09 02:59:46;;;;;;;15.95;6.82;;;11.90;99.90;;;;;;5099354;28;20052;-64
2023/06/09 03:02:12;;;;;;;16.90;7.10;;;11.90;99.90;;;;;;5069709;28;20049;-63
2023/06/09 03:04:40;;;;;;;17.60;7.20;;;11.90;99.90;;;;;;5070901;28;20044;-64
2023/06/09 03:07:09;;;;;;;13.52;6.15;;;11.90;99.90;;;;;;5071723;28;20059;-65
2023/06/09 03:09:35;;;;;;;16.33;6.65;;;11.90;99.90;;;;;;5068690;28;20048;-65
2023/06/09 03:12:01;;;;;;;18.38;7.00;;;11.90;99.90;;;;;;5070040;28;20460;-64
2023/06/09 03:14:27;;;;;;;20.67;7.95;;;11.90;99.90;;;;;;5074039;28;20544;-63
2023/06/09 03:16:53;;;;;;;20.75;7.13;;;11.80;99.90;;;;;;5071174;28;20033;-64
2023/06/09 03:19:20;;;;;;;15.10;6.90;;;11.80;99.90;;;;;;5069061;28;20049;-65
2023/06/09 03:21:46;;;;;;;14.00;7.07;;;11.80;99.90;;;;;;5052013;28;20037;-64
2023/06/09 03:24:12;;;;;;;12.38;6.85;;;11.80;99.90;;;;;;5068694;28;20036;-63
2023/06/09 03:26:37;;;;;;;15.63;7.32;;;11.80;99.90;;;;;;5069114;28;20044;-65
2023/06/09 03:29:03;;;;;;;14.80;7.05;;;11.70;99.90;;;;;;5069233;28;20506;-63
2023/06/09 03:31:29;;;;;;;16.00;7.20;;;11.70;99.90;;;;;;5069187;28;20044;-64
2023/06/09 03:33:56;;;;;;;16.65;7.13;;;11.70;99.90;;;;;;5067774;28;20852;-64
2023/06/09 03:36:23;;;;;;;17.15;6.90;;;11.70;99.90;;;;;;5052718;28;21910;-64
2023/06/09 03:38:49;;;;;;;16.98;7.50;;;11.80;99.90;;;;;;5069355;28;20040;-63
2023/06/09 03:41:15;;;;;;;15.80;7.38;;;11.70;99.90;;;;;;5071661;28;20036;-64
2023/06/09 03:43:41;;;;;;;15.57;7.10;;;11.70;99.90;;;;;;5070094;28;20094;-63
2023/06/09 03:46:07;;;;;;;16.98;7.75;;;11.80;99.90;;;;;;5070118;28;20094;-64
2023/06/09 03:48:32;;;;;;;19.08;8.45;;;11.70;99.90;;;;;;5095521;28;20056;-63
2023/06/09 03:50:58;;;;;;;15.48;8.57;;;11.70;99.90;;;;;;5064013;28;20036;-66
2023/06/09 03:53:24;;;;;;;13.43;8.00;;;11.70;99.90;;;;;;5067558;28;20547;-64
2023/06/09 03:55:49;;;;;;;19.67;10.30;;;11.70;99.90;;;;;;5069323;28;20407;-64
2023/06/09 03:58:15;;;;;;;15.15;7.88;;;11.80;99.90;;;;;;5068582;28;20066;-63
2023/06/09 04:00:42;;;;;;;19.88;8.02;;;11.80;99.90;;;;;;5068701;28;20513;-66
2023/06/09 04:03:08;;;;;;;18.30;8.23;;;11.80;99.90;;;;;;5068451;28;20048;-64
2023/06/09 04:05:34;;;;;;;17.10;8.30;;;11.90;99.90;;;;;;5068505;28;20020;-64
2023/06/09 04:08:00;;;;;;;19.17;8.85;;;11.90;99.90;;;;;;5068659;28;20047;-66
2023/06/09 04:10:25;;;;;;;19.45;8.65;;;11.90;99.90;;;;;;5068589;28;20043;-63
2023/06/09 04:12:51;;;;;;;21.77;8.90;;;11.90;99.90;;;;;;5068756;28;20063;-63
2023/06/09 04:15:18;;;;;;;17.75;9.50;;;11.90;99.90;;;;;;5067207;28;20119;-66
2023/06/09 04:17:43;;;;;;;16.10;8.25;;;12.00;99.90;;;;;;5068279;28;20040;-64
2023/06/09 04:20:09;;;;;;;20.23;8.45;;;12.00;99.90;;;;;;5068331;28;20028;-64
2023/06/09 04:22:35;;;;;;;18.48;8.32;;;12.00;99.90;;;;;;5068670;28;20048;-64
2023/06/09 04:25:03;;;;;;;16.48;8.40;;;12.10;99.90;;;;;;5069688;28;20117;-65
2023/06/09 04:27:30;;;;;;;20.52;9.23;;;12.10;99.90;;;;;;5067497;28;20504;-67
2023/06/09 04:29:57;;;;;;;19.85;9.02;;;12.20;99.90;;;;;;5052433;28;20047;-65
2023/06/09 04:32:23;;;;;;;14.98;7.45;;;12.20;99.90;;;;;;5068661;28;20169;-63
2023/06/09 04:34:49;;;;;;;17.70;7.93;;;12.30;99.90;;;;;;5070104;28;20029;-64
2023/06/09 04:37:15;;;;;;;22.35;7.72;;;12.30;99.90;;;;;;5068320;28;20040;-65
2023/06/09 04:39:45;;;;;;;18.98;8.80;;;12.40;99.90;;;;;;5068372;28;20059;-64
2023/06/09 04:42:11;;;;;;;21.92;8.07;;;12.40;99.90;;;;;;5067993;28;20119;-64
2023/06/09 04:44:39;;;;;;;19.17;8.55;;;12.50;99.90;;;;;;5090515;28;20078;-64
2023/06/09 04:47:05;;;;;;;17.30;7.57;;;12.60;99.90;;;;;;5065570;28;20491;-65
2023/06/09 04:49:31;;;;;;;17.70;7.82;;;12.60;99.90;;;;;;5063536;28;20513;-66
2023/06/09 04:51:59;;;;;;;17.83;7.60;;;12.70;99.90;;;;;;5066686;28;20040;-65
2023/06/09 04:54:25;;;;;;;17.33;8.45;;;12.70;99.90;;;;;;5050578;28;20044;-64
2023/06/09 04:56:57;;;;;;;18.83;8.02;;;12.80;99.90;;;;;;5068373;28;20050;-64
2023/06/09 04:59:23;;;;;;;18.23;9.00;;;12.80;99.90;;;;;;5061003;28;20036;-65
2023/06/09 05:01:51;;;;;;;16.52;7.82;;;12.90;99.90;;;;;;5064339;28;20044;-64
2023/06/09 05:04:17;;;;;;;16.95;8.18;;;13.00;99.90;;;;;;5066678;28;20041;-63
2023/06/09 05:06:43;;;;;;;16.05;7.75;;;13.10;99.90;;;;;;5066082;28;20120;-64
2023/06/09 05:09:08;;;;;;;17.08;7.20;;;13.10;99.90;;;;;;5095068;28;20100;-62
2023/06/09 05:11:35;;;;;;;17.33;8.18;;;13.20;99.90;;;;;;5068047;28;20498;-65
2023/06/09 05:14:01;;;;;;;18.42;7.97;;;13.30;99.90;;;;;;5069734;28;20072;-65
2023/06/09 05:16:28;;;;;;;18.90;7.88;;;13.30;99.90;;;;;;5067435;28;20145;-63
2023/06/09 05:18:54;;;;;;;17.88;7.88;;;13.40;99.90;;;;;;5072526;28;20052;-65
2023/06/09 05:21:21;;;;;;;19.25;8.45;;;13.50;99.90;;;;;;5071934;28;20131;-63
2023/06/09 05:23:47;;;;;;;16.35;7.70;;;13.60;99.90;;;;;;5071806;28;20055;-64
2023/06/09 05:26:13;;;;;;;15.93;7.15;;;13.70;99.90;;;;;;5071789;28;20041;-65
2023/06/09 05:28:39;;;;;;;18.23;7.45;;;13.80;99.90;;;;;;5069819;28;20127;-64
2023/06/09 05:31:04;;;;;;;17.58;9.02;;;13.90;99.90;;;;;;5069673;28;20040;-64
2023/06/09 05:33:30;;;;;;;18.90;7.45;;;14.00;99.90;;;;;;5073866;28;20131;-64
2023/06/09 05:35:56;;;;;;;14.38;6.95;;;14.20;99.90;;;;;;5071050;28;20036;-64
2023/06/09 05:38:23;;;;;;;18.10;7.55;;;14.30;99.90;;;;;;5073897;28;20045;-65
2023/06/09 05:40:49;;;;;;;17.75;7.57;;;14.50;99.90;;;;;;5071756;28;20518;-63
2023/06/09 05:43:15;;;;;;;13.00;7.13;;;14.60;99.90;;;;;;5071302;28;20486;-63
2023/06/09 05:45:40;;;;;;;17.77;7.28;;;14.70;99.90;;;;;;5071444;28;20086;-64
2023/06/09 05:48:06;;;;;;;15.50;6.90;;;14.80;99.90;;;;;;5054617;28;20044;-65
2023/06/09 05:50:32;;;;;;;15.95;7.40;;;15.00;99.90;;;;;;5071444;28;20071;-63
2023/06/09 05:52:57;;;;;;;19.00;7.15;;;15.10;99.90;;;;;;5070756;28;20075;-65
2023/06/09 05:55:25;;;;;;;13.43;6.93;;;15.30;99.90;;;;;;5071153;28;20261;-65
2023/06/09 05:57:51;;;;;;;16.75;7.25;;;15.40;99.90;;;;;;5071276;28;20056;-64
2023/06/09 06:00:17;;;;;;;15.65;6.57;;;15.50;99.90;;;;;;5071181;28;20041;-65
2023/06/09 06:02:44;;;;;;;14.50;6.68;;;15.60;99.90;;;;;;5070599;28;20045;-64
2023/06/09 06:05:12;;;;;;;11.60;6.18;;;15.80;99.90;;;;;;5071285;28;20051;-64
2023/06/09 06:07:38;;;;;;;11.73;6.68;;;15.90;99.90;;;;;;5070783;28;20037;-65
2023/06/09 06:10:05;;;;;;;14.52;6.88;;;16.10;99.90;;;;;;5070995;28;20037;-66
2023/06/09 06:12:34;;;;;;;15.18;6.90;;;16.10;99.90;;;;;;5070658;28;20075;-66
2023/06/09 06:14:59;;;;;;;15.40;6.57;;;16.20;99.90;;;;;;5053964;28;20127;-65
2023/06/09 06:17:25;;;;;;;16.95;6.88;;;16.30;99.90;;;;;;5070591;28;20136;-65
2023/06/09 06:19:51;;;;;;;12.57;6.28;;;16.40;99.90;;;;;;5071900;28;20036;-65
2023/06/09 06:22:17;;;;;;;16.15;6.78;;;16.60;99.90;;;;;;5070906;28;20041;-66
2023/06/09 06:24:42;;;;;;;14.13;6.47;;;16.70;99.90;;;;;;5070108;28;20048;-64
2023/06/09 06:27:08;;;;;;;14.43;6.60;;;16.80;99.90;;;;;;5070841;28;20357;-64
2023/06/09 06:29:34;;;;;;;13.52;6.50;;;17.00;99.90;;;;;;5070234;28;20040;-66
2023/06/09 06:32:00;;;;;;;14.18;6.90;;;17.10;99.90;;;;;;5071604;28;20403;-65
2023/06/09 06:34:26;;;;;;;15.35;7.45;;;17.30;99.90;;;;;;5068787;28;20068;-64
2023/06/09 06:36:56;;;;;;;14.68;6.57;;;17.40;99.90;;;;;;5069228;28;20087;-65
2023/06/09 06:39:21;;;;;;;12.55;6.25;;;17.60;99.90;;;;;;5070705;28;20036;-64
2023/06/09 06:41:47;;;;;;;12.23;6.30;;;17.70;99.90;;;;;;5053601;28;20055;-65
2023/06/09 06:44:13;;;;;;;15.43;7.22;;;17.90;99.90;;;;;;5070635;28;20051;-64
2023/06/09 06:46:39;;;;;;;11.02;5.97;;;18.00;99.90;;;;;;5070219;28;20084;-64
2023/06/09 06:49:04;;;;;;;12.63;6.35;;;18.20;99.90;;;;;;5069672;28;20041;-64
2023/06/09 06:51:30;;;;;;;12.65;6.32;;;18.30;99.90;;;;;;5070270;28;20074;-66
2023/06/09 06:53:56;;;;;;;12.50;6.45;;;18.40;99.90;;;;;;5071443;28;20419;-63
2023/06/09 06:56:22;;;;;;;16.45;7.05;;;18.50;99.90;;;;;;5071610;28;20044;-65
2023/06/09 06:58:48;;;;;;;13.30;6.30;;;18.60;99.90;;;;;;5070377;28;20044;-64
2023/06/09 07:01:17;;;;;;;13.60;5.95;;;18.80;99.90;;;;;;5069150;28;20057;-64
2023/06/09 07:03:43;;;;;;;12.75;5.60;;;18.90;99.90;;;;;;5070073;28;20407;-63
2023/06/09 07:06:09;;;;;;;13.30;6.10;;;19.00;99.90;;;;;;5069899;28;20040;-66
2023/06/09 07:08:35;;;;;;;13.48;6.10;;;19.10;99.90;;;;;;5070358;28;20495;-65
2023/06/09 07:11:02;;;;;;;14.60;6.20;;;19.20;99.90;;;;;;5069789;28;20463;-67
2023/06/09 07:13:27;;;;;;;14.23;5.70;;;19.30;99.90;;;;;;5069321;28;20480;-65
2023/06/09 07:15:53;;;;;;;11.18;5.72;;;19.50;99.90;;;;;;5069851;28;20041;-65
2023/06/09 07:18:19;;;;;;;12.25;5.90;;;19.70;99.90;;;;;;5071022;28;20111;-64
2023/06/09 07:20:44;;;;;;;15.00;5.97;;;19.80;99.90;;;;;;5069779;28;20041;-65
2023/06/09 07:23:10;;;;;;;11.90;5.90;;;19.90;99.90;;;;;;5069158;28;20048;-65
2023/06/09 07:25:36;;;;;;;16.83;6.00;;;20.10;99.90;;;;;;5069701;28;20403;-64
2023/06/09 07:28:02;;;;;;;12.13;5.50;;;20.20;99.90;;;;;;5069427;28;20052;-65
2023/06/09 07:30:27;;;;;;;12.23;5.28;;;20.20;99.90;;;;;;5069414;28;20048;-65
2023/06/09 07:32:53;;;;;;;11.52;5.43;;;20.40;99.90;;;;;;5069111;28;20551;-67
2023/06/09 07:35:20;;;;;;;8.48;4.95;;;20.40;99.90;;;;;;5069341;28;20085;-64
2023/06/09 07:37:46;;;;;;;12.48;5.28;;;20.50;99.90;;;;;;5069373;28;20048;-65
2023/06/09 07:40:12;;;;;;;12.55;5.43;;;20.60;99.90;;;;;;5069035;28;20097;-65
2023/06/09 07:42:38;;;;;;;10.57;5.28;;;20.80;99.90;;;;;;5069446;28;20041;-65
2023/06/09 07:45:04;;;;;;;11.70;4.93;;;20.80;99.90;;;;;;5052369;28;20048;-64
2023/06/09 07:47:30;;;;;;;12.25;5.15;;;21.00;99.90;;;;;;5069562;28;20040;-65
2023/06/09 07:49:56;;;;;;;15.50;5.57;;;21.10;99.90;;;;;;5070938;28;20099;-64
2023/06/09 07:52:22;;;;;;;9.90;5.28;;;21.10;99.90;;;;;;5069001;28;20032;-66
2023/06/09 07:54:47;;;;;;;10.35;5.35;;;21.30;99.90;;;;;;5068635;28;20126;-64
2023/06/09 07:57:13;;;;;;;12.25;5.25;;;21.50;99.90;;;;;;5068804;28;20040;-64
2023/06/09 07:59:40;;;;;;;8.98;5.03;;;21.60;99.90;;;;;;5069447;28;20411;-65
2023/06/09 08:02:05;;;;;;;13.80;6.05;;;21.80;99.90;;;;;;5069149;28;20048;-65
2023/06/09 08:04:31;;;;;;;13.43;5.35;;;21.90;99.90;;;;;;5068966;28;20455;-65
2023/06/09 08:07:00;;;;;;;9.63;4.75;;;22.00;99.90;;;;;;5070234;28;20102;-66
2023/06/09 08:09:26;;;;;;;11.18;5.03;;;22.10;99.90;;;;;;5068883;28;20122;-64
2023/06/09 08:11:52;;;;;;;9.75;5.30;;;22.20;99.90;;;;;;5068993;28;20500;-65
2023/06/09 08:14:18;;;;;;;13.98;5.80;;;22.40;99.90;;;;;;5068694;28;20040;-63
2023/06/09 08:16:46;;;;;;;11.23;5.53;;;22.50;99.90;;;;;;5069000;28;20399;-64
2023/06/09 08:19:12;;;;;;;11.88;5.10;;;22.70;99.90;;;;;;5068999;28;20038;-64
2023/06/09 08:21:44;;;;;;;12.02;5.15;;;22.80;99.90;;;;;;5068208;28;20486;-64
2023/06/09 08:24:10;;;;;;;;;;;22.80;99.70;;;;;;5069524;28;20051;-67
2023/06/09 08:26:36;;;;;;;10.88;5.28;;;22.80;98.80;;;;;;5069154;28;20330;-62
2023/06/09 08:29:03;;;;;;;9.00;5.10;;;23.00;99.80;;;;;;5069332;28;20039;-63
2023/06/09 08:31:29;;;;;;;9.38;4.82;;;23.10;99.30;;;;;;5068460;28;20399;-65
2023/06/09 08:33:55;;;;;;;10.10;5.38;;;23.20;99.80;;;;;;5068780;28;20049;-65
2023/06/09 08:36:21;;;;;;;13.00;5.28;;;23.50;99.70;;;;;;5068672;28;20043;-65
2023/06/09 08:38:47;;;;;;;7.88;4.93;;;23.60;99.10;;;;;;5069026;28;20033;-64
2023/06/09 08:41:15;;;;;;;10.65;5.35;;;23.80;98.90;;;;;;5068464;28;20040;-64
2023/06/09 08:43:41;;;;;;;9.48;4.65;;;23.90;97.80;;;;;;5068516;28;20045;-66
2023/06/09 08:46:10;;;;;;;11.30;5.97;;;24.00;98.50;;;;;;5069096;28;20126;-66
2023/06/09 08:48:41;;;;;;;9.88;5.32;;;23.90;97.40;;;;;;5068800;28;20407;-66
2023/06/09 08:51:08;;;;;;;10.23;6.00;;;24.00;97.70;;;;;;5069375;28;20115;-65
2023/06/09 08:53:34;;;;;;;11.18;5.90;;;24.20;97.80;;;;;;5072069;28;20740;-66
2023/06/09 08:56:01;;;;;;;13.75;6.00;;;24.20;97.20;;;;;;5072397;28;20039;-65
2023/06/09 08:58:31;;;;;;;9.30;5.40;;;24.30;97.50;;;;;;5072547;28;20111;-64
2023/06/09 09:00:56;;;;;;;12.52;5.22;;;24.40;97.50;;;;;;5073517;28;20127;-65
2023/06/09 09:03:23;;;;;;;9.75;5.35;;;24.70;97.50;;;;;;5073256;28;20415;-66
2023/06/09 09:05:49;;;;;;;13.90;6.05;;;24.80;96.90;;;;;;5072190;28;20102;-64
2023/06/09 09:08:16;;;;;;;9.57;5.28;;;24.80;96.50;;;;;;5072484;28;20091;-65
2023/06/09 09:10:43;;;;;;;11.90;5.47;;;24.90;96.20;;;;;;5072048;28;20037;-64
2023/06/09 09:13:12;;;;;;;10.05;5.57;;;25.00;96.30;;;;;;5071878;28;20048;-64
2023/06/09 09:15:49;;;;;;;11.30;5.45;;;25.10;96.30;;;;;;5071568;28;20505;-67
2023/06/09 09:18:19;;;;;;;8.82;4.90;;;25.30;96.40;;;;;;5055247;28;20080;-65
2023/06/09 09:20:45;;;;;;;11.45;5.30;;;25.50;96.00;;;;;;5072035;28;20033;-65
2023/06/09 09:23:11;;;;;;;11.00;4.80;;;25.60;95.30;;;;;;5071956;28;20102;-65
2023/06/09 09:25:37;;;;;;;10.60;5.32;;;25.70;95.30;;;;;;5071797;28;20147;-67
2023/06/09 09:28:08;;;;;;;9.57;4.72;;;25.80;94.70;;;;;;5071389;28;20567;-64
2023/06/09 09:30:41;;;;;;;8.60;4.97;;;26.00;94.90;;;;;;5071361;28;20086;-65
2023/06/09 09:33:16;;;;;;;9.80;5.18;;;26.20;95.10;;;;;;5071613;28;20101;-64
2023/06/09 09:35:47;;;;;;;10.50;5.40;;;26.40;94.50;;;;;;5071850;28;20040;-66
2023/06/09 09:38:18;;;;;;;10.85;5.53;;;26.50;93.60;;;;;;5054921;28;20049;-65
2023/06/09 09:40:49;;;;;;;9.93;4.88;;;26.60;93.70;;;;;;5072122;28;20418;-65
2023/06/09 09:43:16;;;;;;;9.65;4.82;;;26.80;93.90;;;;;;5071801;28;20450;-65
2023/06/09 09:45:50;;;;;;;9.68;5.13;;;26.90;93.40;;;;;;5071276;28;20044;-66
2023/06/09 09:48:21;;;;;;;10.13;4.70;;;27.10;92.20;;;;;;5073130;28;20040;-66
2023/06/09 09:50:51;;;;;;;9.50;5.53;;;27.20;92.50;;;;;;5071867;28;20041;-68
2023/06/09 09:53:20;;;;;;;8.27;4.55;;;27.20;91.60;;;;;;5056550;28;20039;-67
2023/06/09 09:55:46;;;;;;;11.35;4.95;;;27.20;92.10;;;;;;5072699;28;20080;-67
2023/06/09 09:58:13;;;;;;;8.80;4.90;;;27.40;91.90;;;;;;5072163;28;20092;-66
2023/06/09 10:00:43;;;;;;;9.40;4.97;;;27.60;91.90;;;;;;5070311;28;20056;-65
2023/06/09 10:03:16;;;;;;;9.50;5.15;;;27.80;91.10;;;;;;5069838;28;20119;-63
2023/06/09 10:05:47;;;;;;;12.10;5.50;;;27.80;90.20;;;;;;5071082;28;20032;-65
2023/06/09 10:08:26;;;;;;;11.20;5.13;;;27.90;90.80;;;;;;5072389;28;20109;-65
2023/06/09 10:10:53;;;;;;;8.15;4.45;;;28.00;90.30;;;;;;5070630;28;20052;-65
2023/06/09 10:13:20;;;;;;;12.30;4.70;;;27.90;89.30;;;;;;5072277;28;20399;-64
2023/06/09 10:15:46;;;;;;;7.63;4.13;;;28.00;89.30;;;;;;5071197;28;20409;-65
2023/06/09 10:18:12;;;;;;;9.05;4.32;;;28.10;89.70;;;;;;5054004;28;20125;-66
2023/06/09 10:20:42;;;;;;;8.18;4.90;;;28.20;88.60;;;;;;5070499;28;20438;-65
2023/06/09 10:23:08;;;;;;;7.97;4.45;;;28.40;87.70;;;;;;5071715;28;20036;-64
2023/06/09 10:25:33;;;;;;;11.40;4.75;;;28.60;87.50;;;;;;5067930;28;20036;-64
2023/06/09 10:27:59;;;;;;;9.73;4.80;;;28.80;87.60;;;;;;5070505;28;20407;-63
2023/06/09 10:30:25;;;;;;;10.02;5.13;;;28.90;86.40;;;;;;5070546;28;20080;-66
2023/06/09 10:33:05;;;;;;;8.43;5.28;;;29.00;85.20;;;;;;5069955;28;20074;-63
2023/06/09 10:35:34;;;;;;;8.15;3.97;;;29.00;82.60;;;;;;5070786;28;20116;-64
2023/06/09 10:38:19;;;;;;;8.55;4.30;;;29.10;83.00;;;;;;5070465;28;20119;-65
2023/06/09 10:40:49;;;;;;;8.63;4.10;;;29.20;82.70;;;;;;5070261;28;20044;-63
2023/06/09 10:43:53;;;;;;;8.20;4.30;;;29.30;81.60;;;;;;5069823;28;20063;-63
2023/06/09 10:46:42;;;;;;;9.85;3.70;;;29.40;79.20;;;;;;5070154;28;20437;-65
2023/06/09 10:49:25;;;;;;;7.55;4.10;;;29.40;80.40;;;;;;5070135;28;20051;-64
2023/06/09 10:51:55;;;;;;;7.63;4.10;;;29.60;79.40;;;;;;5070476;28;20089;-66
2023/06/09 10:54:23;;;;;;;9.75;4.53;;;29.70;78.30;;;;;;5069687;28;20373;-65
2023/06/09 10:56:52;;;;;;;6.95;4.40;;;29.70;78.10;;;;;;5070066;28;20120;-63
2023/06/09 10:59:24;;;;;;;8.07;4.40;;;29.70;88.20;;;;;;5070271;28;20115;-64
2023/06/09 11:02:05;;;;;;;9.02;4.43;;;29.70;76.40;;;;;;5070450;28;20394;-63
2023/06/09 11:07:27;;;;;;;7.15;4.22;;;29.60;75.90;;;;;;5069642;28;20410;-64
2023/06/09 11:09:53;;;;;;;9.82;4.35;;;29.60;74.90;;;;;;5067517;28;20503;-63
2023/06/09 11:12:25;;;;;;;9.23;4.75;;;29.70;75.20;;;;;;5069561;28;20056;-65
2023/06/09 11:14:58;;;;;;;8.57;4.60;;;29.80;74.50;;;;;;5069428;28;20170;-64
2023/06/09 11:17:42;;;;;;;9.18;3.95;;;29.90;75.20;;;;;;5069746;28;20051;-64
2023/06/09 11:20:11;;;;;;;6.20;3.75;;;29.90;73.80;;;;;;5051237;28;20048;-65
2023/06/09 11:22:44;;;;;;;7.95;3.95;;;30.00;73.70;;;;;;5070857;28;20040;-63
2023/06/09 11:25:18;;;;;;;5.90;3.85;;;30.10;72.60;;;;;;5069067;28;20064;-65
2023/06/09 11:27:45;;;;;;;6.50;4.07;;;30.00;71.30;;;;;;5067624;28;20082;-64
2023/06/09 11:30:20;;;;;;;5.20;3.85;;;29.90;70.70;;;;;;5068970;28;20044;-65
2023/06/09 11:32:48;;;;;;;4.82;4.07;;;29.90;70.70;;;;;;5102069;28;20076;-64
2023/06/09 11:35:29;;;;;;;5.78;4.03;;;29.80;70.50;;;;;;5070602;28;20119;-65
2023/06/09 11:37:58;;;;;;;5.70;4.25;;;29.90;68.80;;;;;;5068043;28;20099;-62
2023/06/09 11:40:25;;;;;;;6.80;3.88;;;29.80;69.80;;;;;;5069435;28;20403;-68
2023/06/09 11:42:51;;;;;;;4.28;3.85;;;29.70;69.20;;;;;;5068987;28;20057;-64
2023/06/09 11:45:17;;;;;;;8.05;4.20;;;29.70;69.60;;;;;;5052471;28;20045;-62
2023/06/09 11:47:45;;;;;;;9.88;3.90;;;29.80;69.80;;;;;;5069572;28;20097;-67
2023/06/09 11:50:13;;;;;;;5.68;3.47;;;29.70;68.40;;;;;;5069198;28;20051;-64
2023/06/09 11:52:44;;;;;;;8.18;3.60;;;29.70;67.60;;;;;;5070219;28;20424;-66
2023/06/09 11:55:13;;;;;;;9.30;4.30;;;29.70;68.20;;;;;;5070965;28;20036;-65
2023/06/09 11:57:39;;;;;;;4.95;3.70;;;29.60;67.60;;;;;;5070459;28;20162;-64
2023/06/09 12:00:12;;;;;;;6.45;4.75;;;29.60;67.60;;;;;;5070195;28;20044;-65
2023/06/09 12:02:40;;;;;;;4.95;4.03;;;29.60;68.00;;;;;;5068857;28;20498;-66
2023/06/09 12:05:10;;;;;;;5.85;4.10;;;29.50;67.50;;;;;;5065325;28;20048;-66
2023/06/09 12:07:36;;;;;;;7.82;4.10;;;29.60;68.80;;;;;;5069045;28;20045;-65
2023/06/09 12:10:03;;;;;;;5.97;3.83;;;29.60;68.00;;;;;;5069357;28;20432;-66
2023/06/09 12:12:29;;;;;;;6.25;3.92;;;29.60;67.60;;;;;;5069036;28;20033;-65
2023/06/09 12:14:54;;;;;;;6.28;4.05;;;29.50;67.10;;;;;;5068669;28;20040;-65
2023/06/09 12:17:20;;;;;;;5.15;3.95;;;29.40;67.60;;;;;;5069183;28;20443;-65
2023/06/09 12:19:49;;;;;;;4.95;4.05;;;29.30;67.50;;;;;;5068920;28;20483;-65
2023/06/09 12:22:16;;;;;;;8.45;4.10;;;29.30;67.10;;;;;;5069145;28;20044;-65
2023/06/09 12:24:43;;;;;;;6.88;4.15;;;29.20;66.80;;;;;;5068743;28;20128;-67
2023/06/09 12:27:11;;;;;;;8.10;4.57;;;29.10;66.30;;;;;;5071707;28;20052;-66
2023/06/09 12:29:37;;;;;;;6.20;3.58;;;29.00;66.40;;;;;;5073041;28;20055;-64
2023/06/09 12:32:05;;;;;;;5.93;3.97;;;29.00;66.60;;;;;;5072853;28;20109;-64
2023/06/09 12:34:31;;;;;;;4.55;4.15;;;29.00;66.90;;;;;;5072637;28;20102;-65
2023/06/09 12:36:57;;;;;;;5.00;4.10;;;29.00;67.40;;;;;;5072670;28;20442;-66
2023/06/09 12:39:28;;;;;;;8.38;4.20;;;29.00;67.20;;;;;;5072939;28;20040;-67
2023/06/09 12:41:54;;;;;;;6.97;4.10;;;29.00;66.30;;;;;;5074301;28;20090;-65
2023/06/09 12:44:24;;;;;;;6.30;3.90;;;28.90;66.40;;;;;;5074366;28;20471;-65
2023/06/09 12:46:57;;;;;;;8.63;4.68;;;28.90;66.60;;;;;;5072373;28;20127;-64